Cypress Inn, TN (38452)

10:39 PM CDT en Septiembre 17, 2014 (GMT -0500)
St Florian | Change Station
CLOSE
Current Station
Estación meteorológica personal
Location: Florence, AL
Altura: 673 ft
Estaciones meteorológicas cercanas

Alt 673 ft 34.88 °N, 87.64 °W | Updated 56 minutes ago

Parcialmente nublado
Parcialmente nublado
62.2 ° F
Sensación térmica 62.2 ° F
N
0.0
Viento Variable Viento desde SE
Gusts 0.0 mph

Hoy
Alta -- | Baja -- ° F
--% Posibilidad de precipitaciones
Ayer
Alta -- | Baja -- ° F
Precip. -- pul
6:35 AM 6:55 PM
Creciente menguante, 30% visible
Presión 29.97 pul
Visibilidad 10.0 Millas
Nubes Despejado
Punto de rocío 59 ° F
Humedad 90%
Precipitaciones 0.00 pul
Espesor de la nieve No disponible.
UV 0 de una escala de 12
Polen 7.90 de una escala de 12
Calidad del aire No disponible.
Flu Activity No disponible.
METAR KMSL 180253Z AUTO 00000KT 10SM CLR 18/15 A2998 RMK AO2 SLP147 T01780150 53002

More Conditions Fewer Conditions

Presión 29.97 pul
Visibilidad 10.0 Millas
Nubes Despejado
Punto de rocío 59 ° F
Humedad 90%
Precipitaciones 0.00 pul
Espesor de la nieve No disponible.
UV 0 de una escala de 12
Polen 7.90 de una escala de 12
Calidad del aire No disponible.
Flu Activity No disponible.
METAR KMSL 180253Z AUTO 00000KT 10SM CLR 18/15 A2998 RMK AO2 SLP147 T01780150 53002

More Conditions Fewer Conditions

10-Day Weather Forecast

Almanac

Astronomía

Sep. 17, 2014 Salida Puesta
Hora real 6:35 AM CDT 6:55 PM CDT
Crepúsculo civil 6:10 AM CDT 7:20 PM CDT
Crepúsculo náutico 5:40 AM CDT 7:50 PM CDT
Crepúsculo astronómico 5:10 AM CDT 8:20 PM CDT
Luna 12:44 AM CDT (9/17) 2:55 PM CDT (9/17)
Horas de luz 13h 10m
Horas de luz
12h 19m
Tomorrow will be 2m 11s shorter.
Creciente menguante, 30% of the Moon is Illuminated
Hoy
Creciente menguante
Sep 24
Nueva
Oct 1
Cuarto creciente
Oct 8
Luna llena
Oct 15
Cuarto menguante

Extremos de hoy

Máximos del estado Bajos del estado

Community

WunderPhotos

Upload Photos

1,754,283 ¡fotos cargadas!

Nearby

Grosos de nieve

Estación Profundido Altura
No tenemos constancia de nieve nueva.

Actividad de terremotos

Ciudad Distance Mag. Tiempo y dato
No hay informes recientes de la actividad sísmica.
Magnitud mínima muestra es 2,5.

Temperaturas de aguas costeras

Lugar Temperatura
Sin partes meteorológicos de las estaciones

Estaciones meteorológicas cercanas